DAL4M KJFK-KMIA
Flight info
| Callsign | DAL4M |
|---|---|
| Flight time | 2h 40m |
| Altitude | 38000 |
| Route | WAVEY EMJAY Q167 KALDA Q101 SKARP Y313 HOAGG BNFSH3 |
| Aircraft | A20N/M-SDE2E3FGHIRWXY/LB1 |
Departure
| Time | 2026-05-09 16:36 |
|---|---|
| Airport | John F. Kennedy International Airport (KJFK) |
Arrival
| Time | 2026-05-09 19:16 |
|---|---|
| Airport | Miami International Airport (KMIA) |
| Time | Latitude | Longitude | Altitude | Speed | Heading |
|---|---|---|---|---|---|
| 2026-05-09 16:01 | 40.64539 | -73.77190 | 20 ft | 0 kts | 28° |
| 2026-05-09 16:27 | 40.64530 | -73.77197 | 20 ft | 2 kts | 30° |
| 2026-05-09 16:27 | 40.64516 | -73.77207 | 21 ft | 2 kts | 30° |
| 2026-05-09 16:27 | 40.64502 | -73.77218 | 20 ft | 2 kts | 32° |
| 2026-05-09 16:28 | 40.64488 | -73.77230 | 20 ft | 2 kts | 37° |
| 2026-05-09 16:28 | 40.64476 | -73.77245 | 20 ft | 2 kts | 63° |
| 2026-05-09 16:28 | 40.64473 | -73.77261 | 21 ft | 1 kts | 97° |
| 2026-05-09 16:31 | 40.64469 | -73.77237 | 20 ft | 8 kts | 104° |
| 2026-05-09 16:32 | 40.64427 | -73.77142 | 20 ft | 14 kts | 111° |
| 2026-05-09 16:32 | 40.64424 | -73.77052 | 20 ft | 16 kts | 88° |
| 2026-05-09 16:32 | 40.64503 | -73.76987 | 20 ft | 11 kts | 7° |
| 2026-05-09 16:32 | 40.64578 | -73.76934 | 20 ft | 14 kts | 32° |
| 2026-05-09 16:33 | 40.64669 | -73.76862 | 20 ft | 17 kts | 30° |
| 2026-05-09 16:33 | 40.64776 | -73.76780 | 21 ft | 19 kts | 30° |
| 2026-05-09 16:33 | 40.64861 | -73.76713 | 22 ft | 0 kts | 30° |
| 2026-05-09 16:34 | 40.64862 | -73.76713 | 22 ft | 0 kts | 30° |
| 2026-05-09 16:34 | 40.64890 | -73.76686 | 22 ft | 10 kts | 31° |
| 2026-05-09 16:34 | 40.64925 | -73.76594 | 21 ft | 13 kts | 104° |
| 2026-05-09 16:34 | 40.64869 | -73.76491 | 21 ft | 13 kts | 157° |
| 2026-05-09 16:35 | 40.64787 | -73.76543 | 21 ft | 23 kts | 210° |
| 2026-05-09 16:35 | 40.64439 | -73.76809 | 19 ft | 91 kts | 210° |
| 2026-05-09 16:35 | 40.63738 | -73.77360 | 20 ft | 142 kts | 211° |
| 2026-05-09 16:35 | 40.62795 | -73.78100 | 212 ft | 167 kts | 209° |
| 2026-05-09 16:36 | 40.61777 | -73.78907 | 803 ft | 169 kts | 211° |
| 2026-05-09 16:36 | 40.58817 | -73.81225 | 3134 ft | 186 kts | 215° |
| 2026-05-09 16:37 | 40.57666 | -73.82136 | 3769 ft | 203 kts | 214° |
| 2026-05-09 16:37 | 40.56339 | -73.83052 | 4331 ft | 229 kts | 199° |
| 2026-05-09 16:37 | 40.54694 | -73.83049 | 5176 ft | 253 kts | 169° |
| 2026-05-09 16:37 | 40.53097 | -73.81863 | 6056 ft | 276 kts | 139° |
| 2026-05-09 16:38 | 40.52028 | -73.79700 | 7022 ft | 296 kts | 112° |
| 2026-05-09 16:38 | 40.51646 | -73.76968 | 7993 ft | 306 kts | 97° |
| 2026-05-09 16:38 | 40.51438 | -73.74190 | 9147 ft | 310 kts | 97° |
| 2026-05-09 16:38 | 40.51225 | -73.71338 | 9944 ft | 316 kts | 97° |
| 2026-05-09 16:39 | 40.51016 | -73.68433 | 10236 ft | 329 kts | 97° |
| 2026-05-09 16:39 | 40.50773 | -73.65349 | 10494 ft | 352 kts | 97° |
| 2026-05-09 16:39 | 40.50460 | -73.62067 | 10698 ft | 367 kts | 104° |
| 2026-05-09 16:39 | 40.49528 | -73.59025 | 10842 ft | 363 kts | 126° |
| 2026-05-09 16:40 | 40.47871 | -73.56599 | 10965 ft | 355 kts | 148° |
| 2026-05-09 16:40 | 40.45733 | -73.55093 | 11098 ft | 347 kts | 165° |
| 2026-05-09 16:42 | 40.30220 | -73.44815 | 12161 ft | 362 kts | 162° |
| 2026-05-09 16:42 | 40.27847 | -73.44056 | 12858 ft | 350 kts | 185° |
| 2026-05-09 16:42 | 40.25489 | -73.44441 | 13610 ft | 339 kts | 206° |
| 2026-05-09 16:42 | 40.23438 | -73.45853 | 14307 ft | 330 kts | 222° |
| 2026-05-09 16:43 | 40.21607 | -73.47655 | 15028 ft | 331 kts | 223° |
| 2026-05-09 16:43 | 40.19723 | -73.49414 | 15729 ft | 336 kts | 220° |
| 2026-05-09 16:43 | 40.17723 | -73.51046 | 16420 ft | 342 kts | 217° |
| 2026-05-09 16:43 | 40.15633 | -73.52571 | 17116 ft | 346 kts | 215° |
| 2026-05-09 16:44 | 40.13485 | -73.54044 | 17787 ft | 350 kts | 214° |
| 2026-05-09 16:44 | 40.11301 | -73.55501 | 18430 ft | 354 kts | 214° |
| 2026-05-09 16:44 | 40.09126 | -73.56943 | 19013 ft | 357 kts | 214° |
| 2026-05-09 16:44 | 40.06912 | -73.58410 | 19602 ft | 359 kts | 214° |
| 2026-05-09 16:45 | 40.04674 | -73.59895 | 20187 ft | 362 kts | 215° |
| 2026-05-09 16:45 | 40.02419 | -73.61394 | 20769 ft | 364 kts | 215° |
| 2026-05-09 16:45 | 40.00161 | -73.62896 | 21355 ft | 367 kts | 215° |
| 2026-05-09 16:45 | 39.97867 | -73.64420 | 21910 ft | 370 kts | 215° |
| 2026-05-09 16:46 | 39.95567 | -73.65947 | 22478 ft | 373 kts | 216° |
| 2026-05-09 16:46 | 39.93248 | -73.67487 | 23030 ft | 376 kts | 216° |
| 2026-05-09 16:46 | 39.90912 | -73.69035 | 23572 ft | 379 kts | 216° |
| 2026-05-09 16:46 | 39.88550 | -73.70601 | 24031 ft | 381 kts | 216° |
| 2026-05-09 16:47 | 39.86217 | -73.72145 | 24490 ft | 383 kts | 216° |
| 2026-05-09 16:47 | 39.83831 | -73.73724 | 24933 ft | 386 kts | 216° |
| 2026-05-09 16:47 | 39.81429 | -73.75312 | 25370 ft | 388 kts | 216° |
| 2026-05-09 16:47 | 39.79011 | -73.76909 | 25792 ft | 391 kts | 216° |
| 2026-05-09 16:48 | 39.76587 | -73.78510 | 26222 ft | 393 kts | 216° |
| 2026-05-09 16:48 | 39.74138 | -73.80125 | 26633 ft | 395 kts | 216° |
| 2026-05-09 16:48 | 39.71679 | -73.81747 | 27036 ft | 398 kts | 216° |
| 2026-05-09 16:48 | 39.69205 | -73.83376 | 27417 ft | 400 kts | 216° |
| 2026-05-09 16:49 | 39.66750 | -73.84991 | 27794 ft | 402 kts | 215° |
| 2026-05-09 16:49 | 39.64207 | -73.86663 | 28162 ft | 405 kts | 215° |
| 2026-05-09 16:49 | 39.61724 | -73.88294 | 28523 ft | 407 kts | 215° |
| 2026-05-09 16:50 | 39.56648 | -73.91625 | 29215 ft | 411 kts | 215° |
| 2026-05-09 16:50 | 39.54094 | -73.93299 | 29540 ft | 413 kts | 215° |
| 2026-05-09 16:50 | 39.51515 | -73.94989 | 29860 ft | 415 kts | 215° |
| 2026-05-09 16:50 | 39.48929 | -73.96681 | 30159 ft | 418 kts | 215° |
| 2026-05-09 16:51 | 39.46331 | -73.98380 | 30444 ft | 420 kts | 215° |
| 2026-05-09 16:51 | 39.43719 | -74.00090 | 30728 ft | 421 kts | 216° |
| 2026-05-09 16:51 | 39.41244 | -74.01971 | 31009 ft | 416 kts | 222° |
| 2026-05-09 16:51 | 39.38941 | -74.04174 | 31336 ft | 410 kts | 227° |
| 2026-05-09 16:52 | 39.36776 | -74.06556 | 31728 ft | 408 kts | 228° |
| 2026-05-09 16:52 | 39.34622 | -74.08923 | 32127 ft | 406 kts | 228° |
| 2026-05-09 16:52 | 39.32469 | -74.11279 | 32522 ft | 405 kts | 229° |
| 2026-05-09 16:52 | 39.30325 | -74.13619 | 32914 ft | 403 kts | 229° |
| 2026-05-09 16:53 | 39.28187 | -74.15949 | 33297 ft | 401 kts | 229° |
| 2026-05-09 16:53 | 39.26061 | -74.18264 | 33667 ft | 399 kts | 229° |
| 2026-05-09 16:53 | 39.23939 | -74.20573 | 34026 ft | 398 kts | 230° |
| 2026-05-09 16:53 | 39.21853 | -74.22840 | 34304 ft | 397 kts | 230° |
| 2026-05-09 16:54 | 39.19746 | -74.25131 | 34549 ft | 396 kts | 230° |
| 2026-05-09 16:54 | 39.17639 | -74.27420 | 34790 ft | 396 kts | 230° |
| 2026-05-09 16:54 | 39.15533 | -74.29704 | 35029 ft | 395 kts | 230° |
| 2026-05-09 16:54 | 39.13430 | -74.31983 | 35262 ft | 395 kts | 230° |
| 2026-05-09 16:55 | 39.11330 | -74.34257 | 35491 ft | 394 kts | 230° |
| 2026-05-09 16:55 | 39.09229 | -74.36531 | 35710 ft | 394 kts | 230° |
| 2026-05-09 16:55 | 39.07133 | -74.38797 | 35918 ft | 394 kts | 230° |
| 2026-05-09 16:55 | 39.05036 | -74.41063 | 36124 ft | 393 kts | 230° |
| 2026-05-09 16:56 | 39.02937 | -74.43329 | 36330 ft | 393 kts | 230° |
| 2026-05-09 16:56 | 39.00872 | -74.45556 | 36524 ft | 393 kts | 230° |
| 2026-05-09 16:56 | 38.98779 | -74.47811 | 36714 ft | 392 kts | 230° |
| 2026-05-09 16:56 | 38.96691 | -74.50059 | 36903 ft | 392 kts | 230° |
| 2026-05-09 16:57 | 38.94599 | -74.52310 | 37076 ft | 392 kts | 230° |
| 2026-05-09 16:57 | 38.92529 | -74.54576 | 37260 ft | 390 kts | 231° |
| 2026-05-09 16:57 | 38.90526 | -74.56916 | 37419 ft | 388 kts | 232° |
| 2026-05-09 16:57 | 38.88555 | -74.59269 | 37585 ft | 387 kts | 232° |
| 2026-05-09 16:58 | 38.86579 | -74.61623 | 37742 ft | 387 kts | 232° |
| 2026-05-09 16:58 | 38.84623 | -74.63934 | 37891 ft | 387 kts | 232° |
| 2026-05-09 16:58 | 38.82638 | -74.66266 | 37979 ft | 387 kts | 232° |
| 2026-05-09 16:59 | 38.78667 | -74.70906 | 37986 ft | 385 kts | 232° |
| 2026-05-09 16:59 | 38.74693 | -74.75501 | 37987 ft | 387 kts | 230° |
| 2026-05-09 17:00 | 38.70508 | -74.79866 | 37984 ft | 388 kts | 230° |
| 2026-05-09 17:00 | 38.66350 | -74.84194 | 37991 ft | 387 kts | 230° |
| 2026-05-09 17:01 | 38.62174 | -74.88539 | 37983 ft | 387 kts | 230° |
| 2026-05-09 17:01 | 38.57999 | -74.92876 | 37998 ft | 386 kts | 230° |
| 2026-05-09 17:02 | 38.53828 | -74.97203 | 37986 ft | 386 kts | 230° |
| 2026-05-09 17:02 | 38.49746 | -75.01590 | 37979 ft | 383 kts | 232° |
| 2026-05-09 17:03 | 38.45723 | -75.06006 | 37968 ft | 387 kts | 228° |
| 2026-05-09 17:05 | 38.28469 | -75.22401 | 37971 ft | 386 kts | 228° |
| 2026-05-09 17:05 | 38.24167 | -75.26472 | 37975 ft | 386 kts | 228° |
| 2026-05-09 17:06 | 38.19857 | -75.30544 | 37977 ft | 385 kts | 228° |
| 2026-05-09 17:06 | 38.15548 | -75.34609 | 37977 ft | 385 kts | 228° |
| 2026-05-09 17:06 | 38.13407 | -75.36624 | 38237 ft | 380 kts | 228° |
| 2026-05-09 17:07 | 38.11288 | -75.38614 | 38418 ft | 379 kts | 228° |
| 2026-05-09 17:07 | 38.07044 | -75.42620 | 38167 ft | 386 kts | 228° |
| 2026-05-09 17:07 | 38.04892 | -75.44641 | 37987 ft | 384 kts | 228° |
| 2026-05-09 17:08 | 38.02877 | -75.46457 | 37971 ft | 385 kts | 227° |
| 2026-05-09 17:08 | 37.96275 | -75.52152 | 37968 ft | 387 kts | 226° |
| 2026-05-09 17:09 | 37.91841 | -75.55994 | 37972 ft | 386 kts | 226° |
| 2026-05-09 17:09 | 37.87268 | -75.59657 | 37974 ft | 398 kts | 218° |
| 2026-05-09 17:10 | 37.84702 | -75.60955 | 37980 ft | 412 kts | 210° |
| 2026-05-09 17:10 | 37.81858 | -75.61793 | 38116 ft | 427 kts | 202° |
| 2026-05-09 17:10 | 37.78824 | -75.62094 | 37965 ft | 451 kts | 193° |
| 2026-05-09 17:10 | 37.75597 | -75.61828 | 37705 ft | 468 kts | 188° |
| 2026-05-09 17:11 | 37.69134 | -75.61364 | 37925 ft | 454 kts | 195° |
| 2026-05-09 17:11 | 37.62982 | -75.62180 | 37982 ft | 439 kts | 204° |
| 2026-05-09 17:12 | 37.57011 | -75.63514 | 37986 ft | 442 kts | 204° |
| 2026-05-09 17:12 | 37.51034 | -75.64795 | 37982 ft | 419 kts | 204° |
| 2026-05-09 17:13 | 37.48202 | -75.65390 | 37987 ft | 408 kts | 205° |
| 2026-05-09 17:13 | 37.45399 | -75.66001 | 37984 ft | 410 kts | 205° |
| 2026-05-09 17:13 | 37.39739 | -75.67248 | 37985 ft | 415 kts | 205° |
| 2026-05-09 17:14 | 37.34094 | -75.68461 | 37979 ft | 412 kts | 205° |
| 2026-05-09 17:14 | 37.28445 | -75.69670 | 37979 ft | 411 kts | 205° |
| 2026-05-09 17:15 | 37.23254 | -75.70782 | 37978 ft | 410 kts | 205° |
| 2026-05-09 17:15 | 37.17637 | -75.71985 | 37975 ft | 410 kts | 206° |
| 2026-05-09 17:17 | 36.97212 | -75.80432 | 37952 ft | 370 kts | 224° |
| 2026-05-09 17:18 | 36.92747 | -75.83552 | 37943 ft | 369 kts | 223° |
| 2026-05-09 17:18 | 36.88249 | -75.86671 | 37933 ft | 370 kts | 223° |
| 2026-05-09 17:19 | 36.83748 | -75.89784 | 37930 ft | 370 kts | 223° |
| 2026-05-09 17:19 | 36.79252 | -75.92888 | 37931 ft | 369 kts | 224° |
| 2026-05-09 17:20 | 36.74760 | -75.95986 | 37932 ft | 368 kts | 224° |
| 2026-05-09 17:20 | 36.70317 | -75.99047 | 37945 ft | 368 kts | 224° |
| 2026-05-09 17:21 | 36.65842 | -76.02126 | 37928 ft | 367 kts | 224° |
| 2026-05-09 17:21 | 36.61377 | -76.05194 | 37919 ft | 366 kts | 224° |
| 2026-05-09 17:22 | 36.56915 | -76.08256 | 37925 ft | 366 kts | 224° |
| 2026-05-09 17:22 | 36.52468 | -76.11304 | 37940 ft | 365 kts | 224° |
| 2026-05-09 17:23 | 36.48054 | -76.14325 | 37943 ft | 365 kts | 224° |
| 2026-05-09 17:23 | 36.43608 | -76.17363 | 37945 ft | 364 kts | 224° |
| 2026-05-09 17:25 | 36.30325 | -76.26418 | 37940 ft | 362 kts | 224° |
| 2026-05-09 17:25 | 36.25940 | -76.29399 | 37943 ft | 362 kts | 224° |
| 2026-05-09 17:26 | 36.21529 | -76.32394 | 37944 ft | 361 kts | 224° |
| 2026-05-09 17:26 | 36.17118 | -76.35386 | 37948 ft | 361 kts | 224° |
| 2026-05-09 17:27 | 36.12717 | -76.38367 | 37965 ft | 361 kts | 224° |
| 2026-05-09 17:27 | 36.08338 | -76.41329 | 37963 ft | 361 kts | 224° |
| 2026-05-09 17:28 | 36.03936 | -76.44303 | 37965 ft | 361 kts | 224° |
| 2026-05-09 17:28 | 35.99539 | -76.47269 | 37965 ft | 360 kts | 224° |
| 2026-05-09 17:29 | 35.95136 | -76.50237 | 37963 ft | 360 kts | 224° |
| 2026-05-09 17:29 | 35.90730 | -76.53204 | 37961 ft | 361 kts | 224° |
| 2026-05-09 17:30 | 35.86304 | -76.56075 | 37967 ft | 364 kts | 222° |
| 2026-05-09 17:30 | 35.81746 | -76.58846 | 37976 ft | 365 kts | 222° |
| 2026-05-09 17:31 | 35.77201 | -76.61626 | 37963 ft | 365 kts | 222° |
| 2026-05-09 17:32 | 35.65867 | -76.68601 | 37977 ft | 366 kts | 222° |
| 2026-05-09 17:33 | 35.61328 | -76.71389 | 37975 ft | 366 kts | 222° |
| 2026-05-09 17:33 | 35.56755 | -76.74195 | 37978 ft | 367 kts | 222° |
| 2026-05-09 17:34 | 35.52174 | -76.77001 | 37979 ft | 367 kts | 222° |
| 2026-05-09 17:35 | 35.36115 | -76.86814 | 37960 ft | 371 kts | 221° |
| 2026-05-09 17:36 | 35.31483 | -76.89637 | 37957 ft | 373 kts | 221° |
| 2026-05-09 17:36 | 35.26804 | -76.92489 | 37981 ft | 379 kts | 220° |
| 2026-05-09 17:37 | 35.22115 | -76.95349 | 37983 ft | 379 kts | 221° |
| 2026-05-09 17:37 | 35.17424 | -76.98298 | 37982 ft | 379 kts | 221° |
| 2026-05-09 17:38 | 35.12719 | -77.01261 | 37977 ft | 381 kts | 221° |
| 2026-05-09 17:39 | 35.05665 | -77.05676 | 37979 ft | 383 kts | 221° |
| 2026-05-09 17:39 | 35.00906 | -77.08648 | 37980 ft | 384 kts | 221° |
| 2026-05-09 17:40 | 34.96134 | -77.11598 | 37972 ft | 385 kts | 221° |
| 2026-05-09 17:40 | 34.91357 | -77.14590 | 37971 ft | 386 kts | 221° |
| 2026-05-09 17:41 | 34.86567 | -77.17583 | 37976 ft | 388 kts | 221° |
| 2026-05-09 17:41 | 34.81753 | -77.20576 | 37971 ft | 389 kts | 221° |
| 2026-05-09 17:42 | 34.76948 | -77.23555 | 37974 ft | 391 kts | 221° |
| 2026-05-09 17:42 | 34.72080 | -77.26569 | 37969 ft | 393 kts | 220° |
| 2026-05-09 17:43 | 34.67191 | -77.29594 | 37982 ft | 395 kts | 220° |
| 2026-05-09 17:43 | 34.62273 | -77.32631 | 37989 ft | 397 kts | 220° |
| 2026-05-09 17:44 | 34.57372 | -77.35653 | 37984 ft | 397 kts | 220° |
| 2026-05-09 17:44 | 34.52447 | -77.38659 | 37983 ft | 400 kts | 219° |
| 2026-05-09 17:45 | 34.47120 | -77.41077 | 37985 ft | 418 kts | 210° |
| 2026-05-09 17:45 | 34.41325 | -77.42509 | 37988 ft | 431 kts | 203° |
| 2026-05-09 17:46 | 34.35399 | -77.43636 | 37990 ft | 431 kts | 204° |
| 2026-05-09 17:46 | 34.29513 | -77.44780 | 37993 ft | 431 kts | 204° |
| 2026-05-09 17:47 | 34.23592 | -77.45935 | 37994 ft | 431 kts | 204° |
| 2026-05-09 17:47 | 34.17657 | -77.47093 | 37991 ft | 432 kts | 204° |
| 2026-05-09 17:48 | 34.11756 | -77.48243 | 37992 ft | 432 kts | 204° |
| 2026-05-09 17:48 | 34.05826 | -77.49395 | 38005 ft | 432 kts | 204° |
| 2026-05-09 17:49 | 33.99894 | -77.50546 | 37997 ft | 431 kts | 204° |
| 2026-05-09 17:49 | 33.93974 | -77.51693 | 38003 ft | 431 kts | 204° |
| 2026-05-09 17:50 | 33.88054 | -77.52839 | 38002 ft | 430 kts | 204° |
| 2026-05-09 17:50 | 33.80221 | -77.54350 | 37991 ft | 426 kts | 204° |
| 2026-05-09 17:51 | 33.73441 | -77.55659 | 37992 ft | 424 kts | 204° |
| 2026-05-09 17:51 | 33.67620 | -77.56781 | 37997 ft | 423 kts | 204° |
| 2026-05-09 17:52 | 33.61823 | -77.57896 | 38000 ft | 421 kts | 204° |
| 2026-05-09 17:52 | 33.56136 | -77.59263 | 37995 ft | 409 kts | 210° |
| 2026-05-09 17:53 | 33.50731 | -77.61179 | 37989 ft | 407 kts | 211° |
| 2026-05-09 17:53 | 33.45291 | -77.63096 | 37991 ft | 408 kts | 210° |
| 2026-05-09 17:54 | 33.39845 | -77.65003 | 37993 ft | 408 kts | 210° |
| 2026-05-09 17:54 | 33.34394 | -77.66906 | 37992 ft | 408 kts | 210° |
| 2026-05-09 17:55 | 33.29118 | -77.68747 | 37995 ft | 408 kts | 210° |
| 2026-05-09 17:55 | 33.23602 | -77.70670 | 37990 ft | 409 kts | 210° |
| 2026-05-09 17:56 | 33.18135 | -77.72573 | 37987 ft | 409 kts | 210° |
| 2026-05-09 17:57 | 33.09920 | -77.75426 | 37982 ft | 411 kts | 210° |
| 2026-05-09 17:57 | 33.04473 | -77.77314 | 37984 ft | 411 kts | 210° |
| 2026-05-09 17:58 | 32.98995 | -77.79211 | 37984 ft | 412 kts | 210° |
| 2026-05-09 17:58 | 32.93439 | -77.81133 | 37985 ft | 413 kts | 210° |
| 2026-05-09 17:59 | 32.87911 | -77.83042 | 37983 ft | 415 kts | 210° |
| 2026-05-09 17:59 | 32.82363 | -77.84955 | 37990 ft | 416 kts | 210° |
| 2026-05-09 18:00 | 32.76793 | -77.86874 | 37992 ft | 417 kts | 209° |
| 2026-05-09 18:00 | 32.72161 | -77.88467 | 37991 ft | 417 kts | 209° |
| 2026-05-09 18:01 | 32.65685 | -77.90688 | 38003 ft | 419 kts | 209° |
| 2026-05-09 18:01 | 32.60047 | -77.92519 | 37999 ft | 421 kts | 208° |
| 2026-05-09 18:02 | 32.54451 | -77.94314 | 38002 ft | 419 kts | 208° |
| 2026-05-09 18:02 | 32.48824 | -77.96134 | 37996 ft | 419 kts | 208° |
| 2026-05-09 18:03 | 32.43195 | -77.97956 | 37994 ft | 420 kts | 208° |
| 2026-05-09 18:03 | 32.38502 | -77.99473 | 37997 ft | 420 kts | 208° |
| 2026-05-09 18:04 | 32.32007 | -78.01569 | 37997 ft | 421 kts | 208° |
| 2026-05-09 18:04 | 32.26430 | -78.03364 | 38000 ft | 421 kts | 208° |
| 2026-05-09 18:05 | 32.20702 | -78.05207 | 37996 ft | 421 kts | 208° |
| 2026-05-09 18:05 | 32.16008 | -78.06717 | 37995 ft | 421 kts | 208° |
| 2026-05-09 18:06 | 32.10367 | -78.08529 | 37996 ft | 421 kts | 208° |
| 2026-05-09 18:06 | 32.04713 | -78.10343 | 37997 ft | 421 kts | 208° |
| 2026-05-09 18:07 | 31.99053 | -78.12156 | 37997 ft | 422 kts | 208° |
| 2026-05-09 18:07 | 31.93545 | -78.13919 | 37997 ft | 422 kts | 208° |
| 2026-05-09 18:08 | 31.87841 | -78.15741 | 38003 ft | 422 kts | 208° |
| 2026-05-09 18:08 | 31.82170 | -78.17552 | 38002 ft | 422 kts | 208° |
| 2026-05-09 18:09 | 31.76502 | -78.19358 | 38002 ft | 422 kts | 208° |
| 2026-05-09 18:09 | 31.70901 | -78.21141 | 38008 ft | 422 kts | 208° |
| 2026-05-09 18:10 | 31.65198 | -78.22955 | 38007 ft | 422 kts | 208° |
| 2026-05-09 18:10 | 31.59527 | -78.24758 | 38004 ft | 422 kts | 208° |
| 2026-05-09 18:11 | 31.53863 | -78.26555 | 38003 ft | 422 kts | 208° |
| 2026-05-09 18:11 | 31.48199 | -78.28349 | 37999 ft | 421 kts | 208° |
| 2026-05-09 18:12 | 31.42623 | -78.30166 | 38000 ft | 420 kts | 209° |
| 2026-05-09 18:12 | 31.36996 | -78.32073 | 37994 ft | 419 kts | 209° |
| 2026-05-09 18:13 | 31.31386 | -78.33960 | 37990 ft | 419 kts | 208° |
| 2026-05-09 18:13 | 31.25779 | -78.35835 | 37989 ft | 420 kts | 208° |
| 2026-05-09 18:14 | 31.20322 | -78.37657 | 37987 ft | 420 kts | 208° |
| 2026-05-09 18:14 | 31.14703 | -78.39531 | 37986 ft | 421 kts | 208° |
| 2026-05-09 18:15 | 31.09074 | -78.41405 | 37988 ft | 421 kts | 208° |
| 2026-05-09 18:15 | 31.03493 | -78.43261 | 37991 ft | 422 kts | 208° |
| 2026-05-09 18:16 | 30.97805 | -78.45151 | 37993 ft | 423 kts | 208° |
| 2026-05-09 18:16 | 30.92140 | -78.47031 | 37997 ft | 424 kts | 208° |
| 2026-05-09 18:17 | 30.86502 | -78.48899 | 38001 ft | 425 kts | 208° |
| 2026-05-09 18:17 | 30.80757 | -78.50800 | 38004 ft | 426 kts | 208° |
| 2026-05-09 18:18 | 30.75040 | -78.52689 | 38009 ft | 427 kts | 208° |
| 2026-05-09 18:18 | 30.69351 | -78.54566 | 38008 ft | 428 kts | 208° |
| 2026-05-09 18:19 | 30.63613 | -78.56458 | 38014 ft | 429 kts | 208° |
| 2026-05-09 18:19 | 30.55166 | -78.59239 | 38023 ft | 430 kts | 208° |
| 2026-05-09 18:20 | 30.49411 | -78.61129 | 38013 ft | 429 kts | 208° |
| 2026-05-09 18:20 | 30.43715 | -78.62999 | 38011 ft | 429 kts | 208° |
| 2026-05-09 18:21 | 30.37988 | -78.64878 | 38020 ft | 429 kts | 208° |
| 2026-05-09 18:21 | 30.32221 | -78.66767 | 38014 ft | 429 kts | 208° |
| 2026-05-09 18:22 | 30.26887 | -78.68511 | 38013 ft | 429 kts | 208° |
| 2026-05-09 18:22 | 30.21138 | -78.70390 | 38016 ft | 429 kts | 208° |
| 2026-05-09 18:23 | 30.15434 | -78.72252 | 38013 ft | 429 kts | 208° |
| 2026-05-09 18:23 | 30.09732 | -78.74110 | 38011 ft | 429 kts | 208° |
| 2026-05-09 18:24 | 30.03992 | -78.75978 | 38011 ft | 429 kts | 208° |
| 2026-05-09 18:25 | 29.95384 | -78.78777 | 38010 ft | 429 kts | 208° |
| 2026-05-09 18:25 | 29.89641 | -78.80641 | 38010 ft | 429 kts | 207° |
| 2026-05-09 18:26 | 29.83938 | -78.82489 | 38006 ft | 429 kts | 207° |
| 2026-05-09 18:26 | 29.78143 | -78.84224 | 38012 ft | 436 kts | 202° |
| 2026-05-09 18:27 | 29.72060 | -78.85153 | 37999 ft | 443 kts | 198° |
| 2026-05-09 18:27 | 29.65975 | -78.85959 | 38014 ft | 443 kts | 198° |
| 2026-05-09 18:28 | 29.59858 | -78.86782 | 38014 ft | 443 kts | 198° |
| 2026-05-09 18:28 | 29.53736 | -78.87607 | 38013 ft | 443 kts | 198° |
| 2026-05-09 18:29 | 29.47616 | -78.88431 | 38018 ft | 442 kts | 198° |
| 2026-05-09 18:29 | 29.41504 | -78.89252 | 38019 ft | 442 kts | 197° |
| 2026-05-09 18:30 | 29.35440 | -78.90066 | 38024 ft | 442 kts | 197° |
| 2026-05-09 18:30 | 29.29373 | -78.90879 | 38009 ft | 440 kts | 197° |
| 2026-05-09 18:31 | 29.23303 | -78.91691 | 38010 ft | 439 kts | 197° |
| 2026-05-09 18:31 | 29.17231 | -78.92505 | 38011 ft | 439 kts | 197° |
| 2026-05-09 18:32 | 29.11160 | -78.93316 | 38005 ft | 439 kts | 197° |
| 2026-05-09 18:32 | 29.05131 | -78.94120 | 38008 ft | 439 kts | 197° |
| 2026-05-09 18:33 | 28.99059 | -78.94929 | 38012 ft | 439 kts | 197° |
| 2026-05-09 18:33 | 28.92989 | -78.95736 | 38011 ft | 439 kts | 197° |
| 2026-05-09 18:34 | 28.86924 | -78.96543 | 38009 ft | 439 kts | 197° |
| 2026-05-09 18:34 | 28.80888 | -78.97344 | 38009 ft | 439 kts | 197° |
| 2026-05-09 18:35 | 28.74822 | -78.98149 | 38006 ft | 440 kts | 197° |
| 2026-05-09 18:35 | 28.68734 | -78.98955 | 38006 ft | 440 kts | 197° |
| 2026-05-09 18:36 | 28.62647 | -78.99760 | 38008 ft | 441 kts | 197° |
| 2026-05-09 18:36 | 28.56652 | -79.00553 | 38007 ft | 441 kts | 196° |
| 2026-05-09 18:37 | 28.50550 | -79.01358 | 38016 ft | 442 kts | 196° |
| 2026-05-09 18:37 | 28.44436 | -79.02164 | 38006 ft | 443 kts | 196° |
| 2026-05-09 18:38 | 28.38311 | -79.02971 | 38010 ft | 444 kts | 196° |
| 2026-05-09 18:38 | 28.32315 | -79.04248 | 38010 ft | 433 kts | 205° |
| 2026-05-09 18:40 | 28.09625 | -79.12696 | 38019 ft | 433 kts | 207° |
| 2026-05-09 18:41 | 28.03850 | -79.14844 | 38021 ft | 434 kts | 207° |
| 2026-05-09 18:41 | 27.98109 | -79.16976 | 38020 ft | 434 kts | 207° |
| 2026-05-09 18:42 | 27.92392 | -79.19096 | 38021 ft | 433 kts | 207° |
| 2026-05-09 18:42 | 27.86665 | -79.21219 | 38017 ft | 433 kts | 207° |
| 2026-05-09 18:43 | 27.80938 | -79.23340 | 38016 ft | 434 kts | 207° |
| 2026-05-09 18:43 | 27.75240 | -79.25447 | 38019 ft | 434 kts | 207° |
| 2026-05-09 18:44 | 27.69500 | -79.27568 | 38016 ft | 434 kts | 207° |
| 2026-05-09 18:44 | 27.63761 | -79.29685 | 38015 ft | 434 kts | 207° |
| 2026-05-09 18:45 | 27.58015 | -79.31803 | 38013 ft | 435 kts | 207° |
| 2026-05-09 18:45 | 27.55141 | -79.32862 | 37809 ft | 435 kts | 207° |
| 2026-05-09 18:45 | 27.52306 | -79.33905 | 37550 ft | 434 kts | 206° |
| 2026-05-09 18:45 | 27.49432 | -79.34962 | 37064 ft | 436 kts | 206° |
| 2026-05-09 18:46 | 27.46530 | -79.36033 | 36278 ft | 441 kts | 206° |
| 2026-05-09 18:46 | 27.43618 | -79.37105 | 35594 ft | 441 kts | 206° |
| 2026-05-09 18:46 | 27.40695 | -79.38178 | 34899 ft | 442 kts | 205° |
| 2026-05-09 18:46 | 27.37762 | -79.39255 | 34174 ft | 443 kts | 205° |
| 2026-05-09 18:47 | 27.34823 | -79.40333 | 33349 ft | 445 kts | 205° |
| 2026-05-09 18:47 | 27.31888 | -79.41407 | 32672 ft | 443 kts | 205° |
| 2026-05-09 18:47 | 27.28954 | -79.42482 | 31918 ft | 444 kts | 205° |
| 2026-05-09 18:47 | 27.26012 | -79.43560 | 31141 ft | 445 kts | 205° |
| 2026-05-09 18:48 | 27.23090 | -79.44627 | 30693 ft | 439 kts | 205° |
| 2026-05-09 18:48 | 27.20245 | -79.45665 | 30115 ft | 436 kts | 205° |
| 2026-05-09 18:48 | 27.17377 | -79.46713 | 29583 ft | 430 kts | 205° |
| 2026-05-09 18:48 | 27.14580 | -79.47734 | 29057 ft | 424 kts | 204° |
| 2026-05-09 18:49 | 27.11763 | -79.48763 | 28532 ft | 419 kts | 204° |
| 2026-05-09 18:49 | 27.09007 | -79.49769 | 28012 ft | 414 kts | 204° |
| 2026-05-09 18:49 | 27.06293 | -79.50761 | 27501 ft | 409 kts | 204° |
| 2026-05-09 18:49 | 27.03595 | -79.51745 | 26993 ft | 404 kts | 204° |
| 2026-05-09 18:50 | 27.00936 | -79.52715 | 26490 ft | 400 kts | 204° |
| 2026-05-09 18:50 | 26.98391 | -79.53644 | 26001 ft | 396 kts | 204° |
| 2026-05-09 18:50 | 26.95816 | -79.54582 | 25517 ft | 393 kts | 204° |
| 2026-05-09 18:50 | 26.93211 | -79.55533 | 24918 ft | 392 kts | 204° |
| 2026-05-09 18:51 | 26.90640 | -79.56468 | 24518 ft | 386 kts | 204° |
| 2026-05-09 18:51 | 26.88085 | -79.57397 | 24023 ft | 384 kts | 203° |
| 2026-05-09 18:51 | 26.85552 | -79.58313 | 23505 ft | 381 kts | 203° |
| 2026-05-09 18:51 | 26.83041 | -79.59218 | 23005 ft | 376 kts | 203° |
| 2026-05-09 18:52 | 26.80596 | -79.60099 | 22534 ft | 372 kts | 203° |
| 2026-05-09 18:52 | 26.78152 | -79.60980 | 22047 ft | 367 kts | 202° |
| 2026-05-09 18:52 | 26.75736 | -79.61850 | 21583 ft | 363 kts | 202° |
| 2026-05-09 18:52 | 26.73346 | -79.62712 | 21121 ft | 359 kts | 202° |
| 2026-05-09 18:53 | 26.70979 | -79.63566 | 20650 ft | 355 kts | 202° |
| 2026-05-09 18:53 | 26.68641 | -79.64408 | 20189 ft | 352 kts | 202° |
| 2026-05-09 18:53 | 26.66321 | -79.65244 | 19727 ft | 349 kts | 201° |
| 2026-05-09 18:53 | 26.64129 | -79.66033 | 19322 ft | 346 kts | 201° |
| 2026-05-09 18:54 | 26.61862 | -79.66847 | 19092 ft | 344 kts | 201° |
| 2026-05-09 18:54 | 26.59515 | -79.67685 | 18733 ft | 372 kts | 200° |
| 2026-05-09 18:54 | 26.57021 | -79.68561 | 18595 ft | 376 kts | 200° |
| 2026-05-09 18:54 | 26.54543 | -79.69423 | 18529 ft | 368 kts | 200° |
| 2026-05-09 18:55 | 26.52164 | -79.70247 | 18375 ft | 359 kts | 200° |
| 2026-05-09 18:55 | 26.49756 | -79.71084 | 17857 ft | 356 kts | 200° |
| 2026-05-09 18:55 | 26.47432 | -79.72007 | 17305 ft | 352 kts | 207° |
| 2026-05-09 18:55 | 26.45336 | -79.73380 | 16757 ft | 347 kts | 218° |
| 2026-05-09 18:56 | 26.43553 | -79.75165 | 16223 ft | 344 kts | 228° |
| 2026-05-09 18:56 | 26.42000 | -79.77089 | 15719 ft | 341 kts | 228° |
| 2026-05-09 18:56 | 26.40404 | -79.79040 | 15252 ft | 338 kts | 228° |
| 2026-05-09 18:56 | 26.38845 | -79.80944 | 15033 ft | 329 kts | 230° |
| 2026-05-09 18:57 | 26.37459 | -79.82978 | 14833 ft | 330 kts | 235° |
| 2026-05-09 18:57 | 26.36165 | -79.85066 | 14776 ft | 322 kts | 235° |
| 2026-05-09 18:57 | 26.34908 | -79.87080 | 14680 ft | 311 kts | 235° |
| 2026-05-09 18:57 | 26.33695 | -79.89016 | 14528 ft | 300 kts | 235° |
| 2026-05-09 18:58 | 26.32506 | -79.90913 | 14170 ft | 297 kts | 234° |
| 2026-05-09 18:58 | 26.31324 | -79.92799 | 13794 ft | 295 kts | 234° |
| 2026-05-09 18:58 | 26.30183 | -79.94619 | 13588 ft | 287 kts | 234° |
| 2026-05-09 18:58 | 26.29033 | -79.96452 | 13400 ft | 291 kts | 234° |
| 2026-05-09 18:59 | 26.27875 | -79.98297 | 13207 ft | 291 kts | 234° |
| 2026-05-09 18:59 | 26.26719 | -80.00135 | 13016 ft | 290 kts | 233° |
| 2026-05-09 18:59 | 26.25284 | -80.01707 | 12822 ft | 290 kts | 214° |
| 2026-05-09 18:59 | 26.23450 | -80.02642 | 12632 ft | 293 kts | 195° |
| 2026-05-09 19:00 | 26.21446 | -80.03098 | 12439 ft | 294 kts | 193° |
| 2026-05-09 19:00 | 26.17483 | -80.03988 | 12053 ft | 293 kts | 193° |
| 2026-05-09 19:00 | 26.15490 | -80.04442 | 11865 ft | 292 kts | 193° |
| 2026-05-09 19:01 | 26.13496 | -80.04898 | 11659 ft | 292 kts | 193° |
| 2026-05-09 19:01 | 26.11508 | -80.05352 | 11440 ft | 291 kts | 193° |
| 2026-05-09 19:01 | 26.09530 | -80.05803 | 11232 ft | 290 kts | 193° |
| 2026-05-09 19:01 | 26.07553 | -80.06255 | 11058 ft | 290 kts | 193° |
| 2026-05-09 19:02 | 26.05585 | -80.06714 | 10911 ft | 289 kts | 194° |
| 2026-05-09 19:02 | 26.03625 | -80.07220 | 10597 ft | 290 kts | 195° |
| 2026-05-09 19:02 | 26.01671 | -80.07741 | 10345 ft | 286 kts | 195° |
| 2026-05-09 19:02 | 25.99753 | -80.08252 | 10102 ft | 283 kts | 194° |
| 2026-05-09 19:03 | 25.97855 | -80.08753 | 9867 ft | 286 kts | 194° |
| 2026-05-09 19:03 | 25.95910 | -80.09263 | 9609 ft | 288 kts | 194° |
| 2026-05-09 19:03 | 25.93958 | -80.09781 | 9368 ft | 287 kts | 197° |
| 2026-05-09 19:03 | 25.92155 | -80.10685 | 9133 ft | 283 kts | 214° |
| 2026-05-09 19:04 | 25.90686 | -80.12129 | 8895 ft | 283 kts | 229° |
| 2026-05-09 19:04 | 25.89380 | -80.13777 | 8657 ft | 284 kts | 229° |
| 2026-05-09 19:04 | 25.88307 | -80.15594 | 8419 ft | 282 kts | 247° |
| 2026-05-09 19:04 | 25.87868 | -80.17724 | 8177 ft | 286 kts | 267° |
| 2026-05-09 19:05 | 25.87833 | -80.19921 | 7992 ft | 283 kts | 268° |
| 2026-05-09 19:05 | 25.87782 | -80.22102 | 7836 ft | 283 kts | 268° |
| 2026-05-09 19:05 | 25.87716 | -80.24240 | 7483 ft | 285 kts | 268° |
| 2026-05-09 19:05 | 25.87643 | -80.26416 | 7084 ft | 287 kts | 268° |
| 2026-05-09 19:06 | 25.87725 | -80.28625 | 6694 ft | 287 kts | 281° |
| 2026-05-09 19:06 | 25.88340 | -80.30690 | 6305 ft | 285 kts | 297° |
| 2026-05-09 19:06 | 25.89300 | -80.32612 | 5924 ft | 284 kts | 298° |
| 2026-05-09 19:06 | 25.90246 | -80.34527 | 5579 ft | 282 kts | 298° |
| 2026-05-09 19:07 | 25.91177 | -80.36434 | 5241 ft | 280 kts | 297° |
| 2026-05-09 19:07 | 25.92089 | -80.38310 | 4901 ft | 279 kts | 297° |
| 2026-05-09 19:07 | 25.93008 | -80.40215 | 4481 ft | 281 kts | 295° |
| 2026-05-09 19:07 | 25.93641 | -80.42236 | 4135 ft | 276 kts | 278° |
| 2026-05-09 19:08 | 25.93743 | -80.44318 | 3994 ft | 264 kts | 265° |
| 2026-05-09 19:08 | 25.93683 | -80.46362 | 3965 ft | 268 kts | 266° |
| 2026-05-09 19:08 | 25.93643 | -80.48434 | 3982 ft | 267 kts | 266° |
| 2026-05-09 19:08 | 25.93412 | -80.50478 | 4004 ft | 267 kts | 256° |
| 2026-05-09 19:09 | 25.92926 | -80.52463 | 3956 ft | 265 kts | 251° |
| 2026-05-09 19:09 | 25.92339 | -80.54392 | 3697 ft | 262 kts | 242° |
| 2026-05-09 19:09 | 25.91189 | -80.55931 | 3309 ft | 260 kts | 214° |
| 2026-05-09 19:09 | 25.89547 | -80.56637 | 3076 ft | 252 kts | 185° |
| 2026-05-09 19:10 | 25.87888 | -80.56353 | 2953 ft | 240 kts | 155° |
| 2026-05-09 19:10 | 25.86652 | -80.55213 | 2844 ft | 229 kts | 124° |
| 2026-05-09 19:10 | 25.86177 | -80.53581 | 2696 ft | 222 kts | 91° |
| 2026-05-09 19:10 | 25.86539 | -80.51924 | 2375 ft | 225 kts | 68° |
| 2026-05-09 19:11 | 25.87199 | -80.50354 | 2158 ft | 223 kts | 67° |
| 2026-05-09 19:11 | 25.87854 | -80.48847 | 2123 ft | 207 kts | 66° |
| 2026-05-09 19:11 | 25.88462 | -80.47465 | 1976 ft | 196 kts | 66° |
| 2026-05-09 19:11 | 25.88805 | -80.46092 | 1919 ft | 173 kts | 103° |
| 2026-05-09 19:12 | 25.88243 | -80.45030 | 1846 ft | 163 kts | 141° |
| 2026-05-09 19:12 | 25.87436 | -80.44176 | 1824 ft | 156 kts | 134° |
| 2026-05-09 19:12 | 25.86846 | -80.43243 | 1822 ft | 146 kts | 117° |
| 2026-05-09 19:12 | 25.86385 | -80.42311 | 1945 ft | 138 kts | 127° |
| 2026-05-09 19:13 | 25.85801 | -80.41392 | 2032 ft | 152 kts | 128° |
| 2026-05-09 19:13 | 25.85197 | -80.40417 | 1818 ft | 152 kts | 126° |
| 2026-05-09 19:13 | 25.84709 | -80.39410 | 1638 ft | 142 kts | 119° |
| 2026-05-09 19:13 | 25.84257 | -80.38490 | 1595 ft | 131 kts | 127° |
| 2026-05-09 19:14 | 25.83741 | -80.37669 | 1468 ft | 129 kts | 127° |
| 2026-05-09 19:14 | 25.83316 | -80.36819 | 1315 ft | 125 kts | 122° |
| 2026-05-09 19:14 | 25.82910 | -80.35956 | 1141 ft | 126 kts | 121° |
| 2026-05-09 19:14 | 25.82480 | -80.35106 | 1006 ft | 126 kts | 124° |
| 2026-05-09 19:15 | 25.82031 | -80.34285 | 854 ft | 123 kts | 122° |
| 2026-05-09 19:15 | 25.81605 | -80.33458 | 721 ft | 124 kts | 124° |
| 2026-05-09 19:15 | 25.81169 | -80.32632 | 504 ft | 124 kts | 122° |
| 2026-05-09 19:15 | 25.80759 | -80.31816 | 345 ft | 117 kts | 122° |
| 2026-05-09 19:16 | 25.80360 | -80.31057 | 172 ft | 110 kts | 122° |
| 2026-05-09 19:16 | 25.79988 | -80.30322 | 47 ft | 113 kts | 122° |
| 2026-05-09 19:16 | 25.79607 | -80.29607 | 17 ft | 88 kts | 121° |
| 2026-05-09 19:16 | 25.79448 | -80.29298 | 17 ft | 0 kts | 118° |
| 2026-05-09 19:17 | 25.79420 | -80.29213 | 15 ft | 21 kts | 108° |
| 2026-05-09 19:17 | 25.79435 | -80.29073 | 16 ft | 12 kts | 18° |
| 2026-05-09 19:17 | 25.79441 | -80.29072 | 16 ft | 0 kts | 11° |
| 2026-05-09 19:18 | 25.79457 | -80.29071 | 16 ft | 10 kts | 358° |
| 2026-05-09 19:18 | 25.79548 | -80.29080 | 17 ft | 16 kts | 356° |
| 2026-05-09 19:18 | 25.79624 | -80.29063 | 19 ft | 7 kts | 46° |
| 2026-05-09 19:18 | 25.79633 | -80.29030 | 20 ft | 4 kts | 92° |
| 2026-05-09 19:19 | 25.79619 | -80.28983 | 18 ft | 8 kts | 116° |
| 2026-05-09 19:19 | 25.79584 | -80.28908 | 18 ft | 14 kts | 116° |
| 2026-05-09 19:19 | 25.79566 | -80.28797 | 20 ft | 15 kts | 91° |
| 2026-05-09 19:19 | 25.79580 | -80.28680 | 20 ft | 16 kts | 82° |
| 2026-05-09 19:20 | 25.79630 | -80.28571 | 20 ft | 13 kts | 18° |
| 2026-05-09 19:20 | 25.79682 | -80.28500 | 19 ft | 13 kts | 44° |
| 2026-05-09 19:20 | 25.79723 | -80.28491 | 19 ft | 0 kts | 0° |